Terminal Aerodrome Forecast
Issued by NWS

Home | Current Version | Previous Version | Text Only | Print | Product List | Glossary On
Versions: 1 2 3 4 5 6 7 8 9 10 11 12 13 14 15 16 17 18 19 20 21 22 23 24 25 26 27 28 29 30 31 32 33 34 35 36
000
FTUS45 KCYS 221722
TAFLAR
TAF
KLAR 221722Z 2218/2318 25006KT P6SM SCT012 OVC060
     FM222100 30012KT P6SM VCSH SCT015 OVC050
     FM230000 34008KT 4SM -SN SCT010 OVC030
     FM230500 15016G24KT 3SM -SN OVC015=

USA.gov is the U.S. government's official web portal to all federal, state and local government web resources and services.